Time;durP1;ratioP1;P1;durP2;ratioP2;P2;SDS_P1;SDS_P2;PMS_P1;PMS_P2;Temp;Humidity;BMP_temperature;BMP_pressure;BME280_temperature;BME280_humidity;BME280_pressure;Samples;Min_cycle;Max_cycle;Signal;HPM_P1;HPM_P2
2022/10/29 06:43:10;;;;;;;6.80;3.60;;;;;;;;;;5927567;23;21212;-90
2022/10/29 06:45:36;;;;;;;4.57;3.72;;;;;;;;;;4917778;29;20079;-88
2022/10/29 06:48:03;;;;;;;4.70;3.05;;;;;;;;;;4922790;29;20198;-90
2022/10/29 06:50:29;;;;;;;6.35;3.70;;;;;;;;;;4938504;29;20031;-81
2022/10/29 06:53:00;;;;;;;5.10;3.63;;;;;;;;;;4938093;29;20035;-80
2022/10/29 06:55:26;;;;;;;9.25;4.13;;;;;;;;;;4938202;29;20034;-83
2022/10/29 06:57:56;;;;;;;7.10;3.80;;;;;;;;;;4938486;29;20028;-84
2022/10/29 07:00:22;;;;;;;3.78;3.22;;;;;;;;;;4938659;29;20039;-82
2022/10/29 07:02:47;;;;;;;3.95;3.53;;;;;;;;;;4938295;29;20403;-83
2022/10/29 07:05:13;;;;;;;5.55;3.17;;;;;;;;;;4937903;29;20028;-87
2022/10/29 07:07:38;;;;;;;4.38;2.97;;;;;;;;;;4938375;29;20038;-80
2022/10/29 07:10:04;;;;;;;4.55;3.50;;;;;;;;;;4918428;29;20353;-81
2022/10/29 07:12:29;;;;;;;6.50;3.38;;;;;;;;;;4918817;29;20036;-81
2022/10/29 07:14:55;;;;;;;4.15;3.13;;;;;;;;;;4918651;29;20103;-80
2022/10/29 07:17:20;;;;;;;4.00;3.03;;;;;;;;;;4918796;29;20048;-80
2022/10/29 07:19:46;;;;;;;4.47;3.42;;;;;;;;;;4918772;29;20028;-80
2022/10/29 07:22:11;;;;;;;4.03;3.15;;;;;;;;;;4918673;29;20050;-80
2022/10/29 07:24:36;;;;;;;4.47;3.40;;;;;;;;;;4901451;29;20032;-80
2022/10/29 07:27:02;;;;;;;4.10;3.17;;;;;;;;;;4918407;29;20043;-80
2022/10/29 07:29:27;;;;;;;3.45;2.90;;;;;;;;;;4918775;29;20039;-79
2022/10/29 07:31:53;;;;;;;4.32;2.90;;;;;;;;;;4918500;29;20028;-78
2022/10/29 07:34:18;;;;;;;5.10;3.00;;;;;;;;;;4918422;29;20028;-78
2022/10/29 07:36:44;;;;;;;4.63;3.20;;;;;;;;;;4918213;29;20028;-79
2022/10/29 07:39:09;;;;;;;3.60;2.97;;;;;;;;;;4918677;29;20099;-78
2022/10/29 07:41:34;;;;;;;5.28;2.83;;;;;;;;;;4918645;29;20028;-76
2022/10/29 07:44:00;;;;;;;4.57;4.15;;;;;;;;;;4917956;29;20051;-77
2022/10/29 07:46:25;;;;;;;3.35;2.83;;;;;;;;;;4917745;29;20443;-77
2022/10/29 07:48:51;;;;;;;4.10;3.10;;;;;;;;;;4918274;29;20510;-78
2022/10/29 07:51:16;;;;;;;5.05;3.13;;;;;;;;;;4918545;29;20052;-78
2022/10/29 07:53:41;;;;;;;5.30;3.13;;;;;;;;;;4918115;29;20039;-77
2022/10/29 07:56:07;;;;;;;5.10;3.08;;;;;;;;;;4918250;29;20064;-77
2022/10/29 07:58:32;;;;;;;3.42;3.00;;;;;;;;;;4918031;29;20036;-79
2022/10/29 08:00:58;;;;;;;5.22;3.00;;;;;;;;;;4918642;29;20039;-81
2022/10/29 08:03:24;;;;;;;4.60;2.78;;;;;;;;;;4918372;29;20478;-76
2022/10/29 08:05:49;;;;;;;3.83;2.85;;;;;;;;;;4917794;29;20475;-76
2022/10/29 08:08:16;;;;;;;4.10;2.85;;;;;;;;;;4917799;29;20024;-76
2022/10/29 08:10:42;;;;;;;3.90;2.75;;;;;;;;;;4918165;29;20024;-79
2022/10/29 08:13:07;;;;;;;5.53;2.70;;;;;;;;;;4918224;29;20075;-76
2022/10/29 08:15:33;;;;;;;5.05;3.20;;;;;;;;;;4917908;29;20036;-77
2022/10/29 08:18:00;;;;;;;5.25;2.72;;;;;;;;;;4917495;29;20039;-77
2022/10/29 08:20:27;;;;;;;5.13;3.15;;;;;;;;;;4917558;29;20124;-77
2022/10/29 08:22:52;;;;;;;4.75;2.78;;;;;;;;;;4917869;29;20535;-77
2022/10/29 08:25:18;;;;;;;5.78;2.80;;;;;;;;;;4917561;29;20123;-76
2022/10/29 08:27:43;;;;;;;5.57;2.90;;;;;;;;;;4917476;29;20021;-76
2022/10/29 08:30:11;;;;;;;3.03;2.47;;;;;;;;;;4917488;29;20463;-77
2022/10/29 08:32:44;;;;;;;4.40;3.17;;;;;;;;;;4917504;29;20028;-75
2022/10/29 08:35:10;;;;;;;3.97;2.70;;;;;;;;;;4917290;29;20471;-76
2022/10/29 08:37:44;;;;;;;3.30;2.53;;;;;;;;;;4920111;29;20035;-76
2022/10/29 08:40:34;;;;;;;4.35;2.80;;;;;;;;;;4934535;29;20030;-78
2022/10/29 08:43:27;;;;;;;5.40;3.28;;;;;;;;;;4936382;29;20028;-76
2022/10/29 08:45:54;;;;;;;5.55;3.17;;;;;;;;;;4919089;29;20047;-77
2022/10/29 08:48:34;;;;;;;3.53;2.65;;;;;;;;;;4936220;29;20050;-77
2022/10/29 08:51:14;;;;;;;4.50;2.90;;;;;;;;;;4936249;29;20027;-77
2022/10/29 08:53:51;;;;;;;5.80;2.70;;;;;;;;;;4936280;29;20379;-76
2022/10/29 08:56:37;;;;;;;3.70;3.20;;;;;;;;;;4930528;29;20437;-77
2022/10/29 08:59:16;;;;;;;3.13;2.45;;;;;;;;;;4933147;29;20114;-77
2022/10/29 09:01:42;;;;;;;6.20;2.88;;;;;;;;;;4931456;29;20079;-76
2022/10/29 09:04:25;;;;;;;5.57;3.25;;;;;;;;;;4917080;29;20492;-76
2022/10/29 09:06:57;;;;;;;4.88;2.90;;;;;;;;;;4917335;29;20039;-77
2022/10/29 09:09:38;;;;;;;4.53;2.60;;;;;;;;;;4917309;29;20122;-77
2022/10/29 09:12:22;;;;;;;4.88;2.72;;;;;;;;;;4917084;29;20477;-76
2022/10/29 09:15:16;;;;;;;3.00;2.33;;;;;;;;;;4916960;29;20040;-77
2022/10/29 09:17:59;;;;;;;5.70;2.78;;;;;;;;;;4917089;29;20031;-76
2022/10/29 09:20:35;;;;;;;4.38;2.47;;;;;;;;;;4916987;29;20060;-76
2022/10/29 09:23:11;;;;;;;5.18;2.78;;;;;;;;;;4916605;29;20551;-75
2022/10/29 09:25:48;;;;;;;5.22;2.75;;;;;;;;;;4916755;29;20040;-75
2022/10/29 09:28:52;;;;;;;4.72;2.90;;;;;;;;;;4916784;29;20024;-75
2022/10/29 09:31:44;;;;;;;4.05;2.65;;;;;;;;;;4916445;29;20032;-75
2022/10/29 09:34:27;;;;;;;3.40;2.40;;;;;;;;;;4916832;29;20388;-76
2022/10/29 09:36:53;;;;;;;7.40;2.42;;;;;;;;;;4916738;29;20391;-76
2022/10/29 09:39:40;;;;;;;5.97;2.90;;;;;;;;;;4916939;29;20035;-76
2022/10/29 09:42:12;;;;;;;3.90;2.65;;;;;;;;;;4899874;29;20383;-77
2022/10/29 09:44:45;;;;;;;3.60;2.40;;;;;;;;;;4916596;29;20083;-76
2022/10/29 09:47:32;;;;;;;6.15;2.40;;;;;;;;;;4916813;29;20506;-76
2022/10/29 09:50:10;;;;;;;7.85;2.78;;;;;;;;;;4916733;29;20052;-75
2022/10/29 09:52:39;;;;;;;3.58;2.60;;;;;;;;;;4916647;29;20032;-76
2022/10/29 09:55:10;;;;;;;7.97;2.75;;;;;;;;;;4916509;29;20103;-77
2022/10/29 09:57:35;;;;;;;5.70;2.88;;;;;;;;;;4916792;29;20064;-76
2022/10/29 10:00:06;;;;;;;3.22;2.60;;;;;;;;;;4916766;29;20440;-75
2022/10/29 10:02:36;;;;;;;3.13;2.83;;;;;;;;;;4916355;29;20111;-76
2022/10/29 10:05:27;;;;;;;4.25;2.55;;;;;;;;;;4916454;29;20033;-76
2022/10/29 10:08:13;;;;;;;5.57;2.78;;;;;;;;;;4916865;29;20383;-76
2022/10/29 10:10:52;;;;;;;5.55;3.05;;;;;;;;;;4919981;29;20082;-77
2022/10/29 10:13:21;;;;;;;4.43;2.78;;;;;;;;;;4919815;29;20091;-76
2022/10/29 10:15:52;;;;;;;4.67;2.60;;;;;;;;;;4919853;29;20049;-80
2022/10/29 10:18:23;;;;;;;4.75;2.72;;;;;;;;;;4920757;29;20104;-76
2022/10/29 10:21:01;;;;;;;3.92;2.88;;;;;;;;;;4939070;29;20079;-77
2022/10/29 10:23:43;;;;;;;7.97;3.55;;;;;;;;;;4933401;29;20483;-77
2022/10/29 10:26:33;;;;;;;4.30;2.80;;;;;;;;;;4921454;29;20040;-85
2022/10/29 10:29:21;;;;;;;5.07;2.78;;;;;;;;;;4920205;29;20088;-87
2022/10/29 10:32:07;;;;;;;6.50;3.05;;;;;;;;;;4920274;29;20035;-87
2022/10/29 10:34:33;;;;;;;7.75;2.92;;;;;;;;;;4921214;29;20032;-85
2022/10/29 10:37:02;;;;;;;5.60;2.75;;;;;;;;;;4920103;29;20024;-89
2022/10/29 10:39:37;;;;;;;5.75;3.03;;;;;;;;;;4902865;29;20055;-87
2022/10/29 10:42:20;;;;;;;4.40;2.53;;;;;;;;;;4902233;29;20127;-87
2022/10/29 10:45:09;;;;;;;6.18;2.88;;;;;;;;;;4899042;29;20044;-77
2022/10/29 10:47:35;;;;;;;3.72;2.60;;;;;;;;;;4845044;29;20094;-76
2022/10/29 10:50:16;;;;;;;7.75;3.00;;;;;;;;;;4863397;29;20508;-80
2022/10/29 10:52:41;;;;;;;4.50;2.90;;;;;;;;;;4863232;29;20452;-78
2022/10/29 10:55:37;;;;;;;4.00;2.80;;;;;;;;;;4883316;29;20051;-81
2022/10/29 10:58:28;;;;;;;3.30;2.42;;;;;;;;;;4901040;29;20040;-79
2022/10/29 11:01:01;;;;;;;6.40;3.28;;;;;;;;;;4900304;29;20103;-76
2022/10/29 11:03:39;;;;;;;6.30;3.33;;;;;;;;;;4900358;29;20033;-76
2022/10/29 11:06:17;;;;;;;5.07;3.10;;;;;;;;;;4900020;29;20440;-78
2022/10/29 11:08:45;;;;;;;7.80;3.08;;;;;;;;;;4899984;29;20040;-77
2022/10/29 11:11:26;;;;;;;4.20;3.35;;;;;;;;;;4897559;29;20053;-79
2022/10/29 11:13:52;;;;;;;3.90;3.47;;;;;;;;;;4881122;29;20060;-78
2022/10/29 11:16:30;;;;;;;6.05;3.20;;;;;;;;;;4879949;29;20476;-77
2022/10/29 11:18:55;;;;;;;5.85;3.05;;;;;;;;;;4879841;29;20026;-81
2022/10/29 11:21:46;;;;;;;3.15;2.55;;;;;;;;;;4881207;29;20025;-78
2022/10/29 11:24:42;;;;;;;4.47;2.75;;;;;;;;;;4880904;29;20044;-77
2022/10/29 11:27:33;;;;;;;5.00;2.65;;;;;;;;;;4873464;29;20045;-78
2022/10/29 11:30:12;;;;;;;3.90;2.50;;;;;;;;;;4858841;29;20051;-77
2022/10/29 11:32:57;;;;;;;4.13;2.40;;;;;;;;;;4880911;29;20029;-78
2022/10/29 11:35:35;;;;;;;3.65;2.42;;;;;;;;;;4879502;29;20489;-78
2022/10/29 11:38:11;;;;;;;5.32;2.90;;;;;;;;;;4880746;29;20029;-78
2022/10/29 11:40:57;;;;;;;3.72;2.20;;;;;;;;;;4880702;29;20033;-78
2022/10/29 11:43:23;;;;;;;3.85;2.72;;;;;;;;;;4885066;29;20044;-77
2022/10/29 11:46:33;;;;;;;5.28;2.60;;;;;;;;;;4917820;29;20031;-77
2022/10/29 11:49:24;;;;;;;3.40;2.53;;;;;;;;;;4914247;29;20044;-77
2022/10/29 11:52:18;;;;;;;4.68;3.50;;;;;;;;;;4918093;29;20059;-78
2022/10/29 11:55:18;;;;;;;4.40;2.80;;;;;;;;;;4918515;29;20035;-78
2022/10/29 11:57:53;;;;;;;4.80;2.90;;;;;;;;;;4918035;29;20028;-78
2022/10/29 12:00:22;;;;;;;2.72;2.10;;;;;;;;;;4901053;29;20126;-77
2022/10/29 12:03:17;;;;;;;4.93;2.90;;;;;;;;;;4917901;29;20024;-77
2022/10/29 12:05:42;;;;;;;4.43;2.95;;;;;;;;;;4917744;29;20066;-78
2022/10/29 12:08:26;;;;;;;8.32;3.00;;;;;;;;;;4917830;29;20073;-77
2022/10/29 12:11:19;;;;;;;4.45;2.63;;;;;;;;;;4917815;29;20032;-78
2022/10/29 12:14:01;;;;;;;6.82;2.63;;;;;;;;;;4917597;29;20032;-77
2022/10/29 12:16:30;;;;;;;5.10;2.80;;;;;;;;;;4902187;29;20543;-77
2022/10/29 12:19:20;;;;;;;4.15;2.60;;;;;;;;;;4900687;29;20036;-77
2022/10/29 12:21:45;;;;;;;3.20;2.40;;;;;;;;;;4917726;29;20435;-79
2022/10/29 12:24:29;;;;;;;4.35;2.22;;;;;;;;;;4917476;29;20050;-77
2022/10/29 12:27:12;;;;;;;5.85;2.45;;;;;;;;;;4917744;29;20035;-78
2022/10/29 12:29:46;;;;;;;3.55;2.45;;;;;;;;;;4917456;29;20021;-77
2022/10/29 12:32:24;;;;;;;6.18;2.22;;;;;;;;;;4917094;29;20035;-78
2022/10/29 12:35:01;;;;;;;4.53;2.63;;;;;;;;;;4917377;29;20116;-77
2022/10/29 12:37:39;;;;;;;6.97;2.60;;;;;;;;;;4917417;29;20032;-78
2022/10/29 12:40:15;;;;;;;7.10;2.40;;;;;;;;;;4917344;29;20538;-78
2022/10/29 12:42:41;;;;;;;4.15;2.50;;;;;;;;;;4917578;29;20040;-78
2022/10/29 12:45:16;;;;;;;6.00;2.97;;;;;;;;;;4916661;29;20056;-79
2022/10/29 12:47:48;;;;;;;6.85;3.03;;;;;;;;;;4917145;29;20043;-85
2022/10/29 12:50:38;;;;;;;4.97;2.30;;;;;;;;;;4917244;29;20484;-78
2022/10/29 12:53:27;;;;;;;5.68;2.95;;;;;;;;;;4917333;29;20118;-79
2022/10/29 12:55:55;;;;;;;4.05;2.20;;;;;;;;;;4916662;29;20035;-81
2022/10/29 12:58:41;;;;;;;3.47;2.85;;;;;;;;;;4917374;29;20154;-80
2022/10/29 13:01:29;;;;;;;2.95;2.00;;;;;;;;;;4903790;29;20044;-80
2022/10/29 13:03:55;;;;;;;3.65;2.17;;;;;;;;;;4916806;29;20444;-81
2022/10/29 13:06:38;;;;;;;4.15;2.50;;;;;;;;;;4917163;29;20032;-84
2022/10/29 13:09:22;;;;;;;6.45;3.03;;;;;;;;;;4916869;29;20495;-82
2022/10/29 13:11:50;;;;;;;5.82;2.33;;;;;;;;;;4915720;29;20028;-83
2022/10/29 13:14:34;;;;;;;5.47;2.58;;;;;;;;;;4899723;29;20032;-83
2022/10/29 13:17:02;;;;;;;11.13;2.97;;;;;;;;;;4917142;29;20040;-82
2022/10/29 13:19:46;;;;;;;9.40;2.58;;;;;;;;;;4917033;29;20031;-84
2022/10/29 13:22:15;;;;;;;4.60;2.38;;;;;;;;;;4917408;29;20024;-83
2022/10/29 13:24:40;;;;;;;5.40;2.50;;;;;;;;;;4916864;29;20107;-82
2022/10/29 13:27:15;;;;;;;5.20;2.65;;;;;;;;;;4916863;29;20497;-82
2022/10/29 13:29:41;;;;;;;5.43;3.47;;;;;;;;;;4917166;29;20117;-82
2022/10/29 13:32:07;;;;;;;3.08;2.00;;;;;;;;;;4916692;29;20028;-82
2022/10/29 13:34:52;;;;;;;4.28;2.03;;;;;;;;;;4916999;29;20167;-82
2022/10/29 13:37:36;;;;;;;6.88;2.20;;;;;;;;;;4916768;29;20024;-82
2022/10/29 13:40:20;;;;;;;3.20;2.28;;;;;;;;;;4916822;29;20032;-82
2022/10/29 13:42:55;;;;;;;4.28;2.33;;;;;;;;;;4916929;29;20032;-82
2022/10/29 13:45:21;;;;;;;4.03;2.38;;;;;;;;;;4917331;29;20070;-82
2022/10/29 13:47:47;;;;;;;7.85;2.33;;;;;;;;;;4900189;29;20103;-82
2022/10/29 13:50:17;;;;;;;5.20;2.30;;;;;;;;;;4901432;29;20031;-82
2022/10/29 13:52:49;;;;;;;7.40;2.60;;;;;;;;;;4901706;29;20036;-82
2022/10/29 13:55:16;;;;;;;4.50;2.65;;;;;;;;;;4900465;29;20504;-82
2022/10/29 13:57:50;;;;;;;5.28;2.35;;;;;;;;;;4901644;29;20033;-82
2022/10/29 14:00:18;;;;;;;6.90;2.28;;;;;;;;;;4901092;29;20053;-82
2022/10/29 14:02:49;;;;;;;4.60;2.63;;;;;;;;;;4900023;29;20035;-82
2022/10/29 14:05:32;;;;;;;4.93;2.75;;;;;;;;;;4901026;29;20036;-82
2022/10/29 14:08:07;;;;;;;4.55;2.28;;;;;;;;;;4900931;29;20071;-81
2022/10/29 14:10:38;;;;;;;5.22;2.80;;;;;;;;;;4901221;29;20448;-82
2022/10/29 14:13:10;;;;;;;4.40;2.65;;;;;;;;;;4899893;29;20033;-82
2022/10/29 14:15:38;;;;;;;6.03;2.50;;;;;;;;;;4900989;29;20530;-82
2022/10/29 14:18:24;;;;;;;6.78;2.70;;;;;;;;;;4905194;29;20039;-79
2022/10/29 14:21:22;;;;;;;6.70;2.55;;;;;;;;;;4919725;29;20063;-78
2022/10/29 14:24:03;;;;;;;3.33;2.33;;;;;;;;;;4919486;29;20083;-79
2022/10/29 14:26:34;;;;;;;5.32;2.55;;;;;;;;;;4919598;29;20028;-78
2022/10/29 14:29:19;;;;;;;4.32;2.85;;;;;;;;;;4919746;29;20028;-80
2022/10/29 14:31:46;;;;;;;5.97;2.75;;;;;;;;;;4919430;29;20036;-78
2022/10/29 14:34:25;;;;;;;7.05;2.70;;;;;;;;;;4919489;29;20482;-78
2022/10/29 14:36:54;;;;;;;5.22;3.08;;;;;;;;;;4919530;29;20420;-79
2022/10/29 14:39:25;;;;;;;3.70;2.45;;;;;;;;;;4919529;29;20035;-79
2022/10/29 14:41:51;;;;;;;4.85;2.58;;;;;;;;;;4919335;29;20028;-77
2022/10/29 14:44:23;;;;;;;5.95;3.65;;;;;;;;;;4918872;29;20123;-76
2022/10/29 14:47:18;;;;;;;5.57;3.20;;;;;;;;;;4919535;29;20428;-77
2022/10/29 14:49:46;;;;;;;4.28;2.75;;;;;;;;;;4919341;29;20028;-77
2022/10/29 14:52:29;;;;;;;4.05;2.58;;;;;;;;;;4919368;29;20060;-75
2022/10/29 14:55:01;;;;;;;5.90;3.10;;;;;;;;;;4918850;29;20040;-73
2022/10/29 14:57:29;;;;;;;7.20;3.22;;;;;;;;;;4919405;29;20468;-74
2022/10/29 14:59:59;;;;;;;7.45;2.70;;;;;;;;;;4919380;29;20043;-77
2022/10/29 15:02:32;;;;;;;4.97;2.50;;;;;;;;;;4919246;29;20406;-83
2022/10/29 15:04:58;;;;;;;5.30;2.80;;;;;;;;;;4918874;29;20032;-74
2022/10/29 15:07:34;;;;;;;3.70;2.40;;;;;;;;;;4919338;29;20032;-75
2022/10/29 15:10:22;;;;;;;2.97;2.60;;;;;;;;;;4919037;29;20028;-78
2022/10/29 15:12:49;;;;;;;6.38;3.50;;;;;;;;;;4918703;29;20136;-76
2022/10/29 15:15:17;;;;;;;4.65;3.25;;;;;;;;;;4918816;29;20024;-76
2022/10/29 15:18:06;;;;;;;6.30;3.13;;;;;;;;;;4918951;29;20492;-83
2022/10/29 15:20:40;;;;;;;5.20;2.40;;;;;;;;;;4919042;29;20539;-83
2022/10/29 15:23:41;;;;;;;7.78;2.90;;;;;;;;;;4918415;29;20071;-75
2022/10/29 15:26:14;;;;;;;7.15;2.83;;;;;;;;;;4905493;29;20075;-88
2022/10/29 15:28:42;;;;;;;5.85;2.90;;;;;;;;;;4919063;29;20071;-86
2022/10/29 15:31:19;;;;;;;5.28;2.50;;;;;;;;;;4918607;29;20031;-76
2022/10/29 15:33:45;;;;;;;4.82;2.67;;;;;;;;;;4918597;29;20028;-76
2022/10/29 15:36:10;;;;;;;4.40;2.80;;;;;;;;;;4918000;29;20607;-83
2022/10/29 15:38:47;;;;;;;5.00;3.20;;;;;;;;;;4918419;29;20028;-83
2022/10/29 15:41:28;;;;;;;6.95;3.00;;;;;;;;;;4918496;29;20550;-77
2022/10/29 15:43:56;;;;;;;4.90;2.58;;;;;;;;;;4898263;29;20493;-81
2022/10/29 15:46:28;;;;;;;4.70;2.67;;;;;;;;;;4899499;29;20052;-82
2022/10/29 15:48:54;;;;;;;6.20;2.75;;;;;;;;;;4899289;29;20543;-83
2022/10/29 15:51:25;;;;;;;4.50;2.40;;;;;;;;;;4899482;29;20112;-82
2022/10/29 15:53:56;;;;;;;6.25;3.05;;;;;;;;;;4898724;29;20431;-83
2022/10/29 15:56:22;;;;;;;5.68;2.72;;;;;;;;;;4898446;29;20042;-75
2022/10/29 15:58:47;;;;;;;8.32;3.47;;;;;;;;;;4898687;29;20111;-81
2022/10/29 16:01:15;;;;;;;4.00;2.65;;;;;;;;;;4898517;29;20119;-77
2022/10/29 16:03:41;;;;;;;5.53;2.63;;;;;;;;;;4898940;29;20531;-81
2022/10/29 16:06:08;;;;;;;4.63;3.25;;;;;;;;;;4898161;29;20464;-80
2022/10/29 16:08:43;;;;;;;5.68;2.90;;;;;;;;;;4898975;29;20081;-78
2022/10/29 16:11:15;;;;;;;4.85;3.10;;;;;;;;;;4899211;29;20021;-85
2022/10/29 16:13:41;;;;;;;6.13;3.42;;;;;;;;;;4898822;29;20194;-78
2022/10/29 16:16:16;;;;;;;6.93;2.70;;;;;;;;;;4898714;29;20032;-74
2022/10/29 16:18:42;;;;;;;6.00;3.22;;;;;;;;;;4898687;29;20500;-77
2022/10/29 16:21:07;;;;;;;6.45;3.03;;;;;;;;;;4897961;29;20072;-74
2022/10/29 16:23:36;;;;;;;4.68;3.10;;;;;;;;;;4898442;29;20032;-83
2022/10/29 16:26:01;;;;;;;6.32;3.22;;;;;;;;;;4898260;29;20127;-82
2022/10/29 16:28:27;;;;;;;4.53;3.40;;;;;;;;;;4898612;29;20112;-79
2022/10/29 16:30:56;;;;;;;4.95;3.53;;;;;;;;;;4898774;29;20072;-80
2022/10/29 16:33:21;;;;;;;8.30;3.83;;;;;;;;;;4898653;29;20040;-81
2022/10/29 16:35:47;;;;;;;5.75;2.60;;;;;;;;;;4898721;29;20449;-82
2022/10/29 16:38:12;;;;;;;8.10;4.25;;;;;;;;;;4898644;29;20036;-81
2022/10/29 16:40:38;;;;;;;6.38;3.90;;;;;;;;;;4898538;29;20119;-81
2022/10/29 16:43:04;;;;;;;8.00;3.67;;;;;;;;;;4898361;29;20020;-81
2022/10/29 16:45:30;;;;;;;5.03;3.22;;;;;;;;;;4915038;29;20048;-81
2022/10/29 16:47:57;;;;;;;8.05;3.28;;;;;;;;;;4917222;29;20031;-81
2022/10/29 16:50:25;;;;;;;3.65;2.85;;;;;;;;;;4917254;29;20052;-81
2022/10/29 16:52:59;;;;;;;5.85;3.20;;;;;;;;;;4917213;29;20043;-82
2022/10/29 16:55:25;;;;;;;4.95;2.90;;;;;;;;;;4917159;29;20032;-82
2022/10/29 16:57:51;;;;;;;7.43;2.88;;;;;;;;;;4917212;29;20483;-81
2022/10/29 17:00:17;;;;;;;6.95;3.25;;;;;;;;;;4917129;29;20057;-81
2022/10/29 17:02:45;;;;;;;6.38;2.90;;;;;;;;;;4917265;29;20028;-81
2022/10/29 17:05:12;;;;;;;5.07;3.22;;;;;;;;;;4917060;29;20202;-82
2022/10/29 17:07:38;;;;;;;6.05;3.30;;;;;;;;;;4917413;29;20024;-81
2022/10/29 17:10:05;;;;;;;6.72;3.10;;;;;;;;;;4917240;29;20024;-83
2022/10/29 17:12:30;;;;;;;5.75;3.30;;;;;;;;;;4917007;29;20084;-80
2022/10/29 17:14:56;;;;;;;5.40;3.00;;;;;;;;;;4916957;29;20440;-82
2022/10/29 17:17:21;;;;;;;7.32;5.38;;;;;;;;;;4918372;29;20087;-83
2022/10/29 17:19:47;;;;;;;11.77;7.22;;;;;;;;;;4920846;29;20032;-82
2022/10/29 17:22:15;;;;;;;9.20;4.68;;;;;;;;;;4920640;29;20036;-81
2022/10/29 17:24:42;;;;;;;7.23;4.13;;;;;;;;;;4920758;29;20431;-86
2022/10/29 17:27:08;;;;;;;4.95;3.70;;;;;;;;;;4903700;29;20282;-86
2022/10/29 17:29:34;;;;;;;8.20;3.47;;;;;;;;;;4920672;29;20020;-81
2022/10/29 17:32:00;;;;;;;7.07;3.75;;;;;;;;;;4920937;29;20024;-81
2022/10/29 17:34:25;;;;;;;6.47;3.33;;;;;;;;;;4920615;29;20056;-80
2022/10/29 17:36:52;;;;;;;5.28;3.05;;;;;;;;;;4920486;29;20039;-78
2022/10/29 17:39:19;;;;;;;6.13;3.33;;;;;;;;;;4920696;29;20047;-82
2022/10/29 17:41:45;;;;;;;5.88;2.85;;;;;;;;;;4903544;29;20093;-82
2022/10/29 17:44:10;;;;;;;6.63;3.60;;;;;;;;;;4920341;29;20052;-82
2022/10/29 17:46:36;;;;;;;9.90;3.63;;;;;;;;;;4920321;29;20036;-79
2022/10/29 17:49:01;;;;;;;7.72;3.58;;;;;;;;;;4920509;29;20151;-82
2022/10/29 17:51:27;;;;;;;5.32;3.30;;;;;;;;;;4920397;29;20039;-82
2022/10/29 17:53:53;;;;;;;4.85;3.53;;;;;;;;;;4920224;29;20028;-82
2022/10/29 17:56:18;;;;;;;7.05;4.45;;;;;;;;;;4920475;29;20024;-82
2022/10/29 17:58:43;;;;;;;7.80;4.32;;;;;;;;;;4920306;29;20024;-81
2022/10/29 18:01:09;;;;;;;6.10;3.60;;;;;;;;;;4920344;29;20063;-83
2022/10/29 18:03:36;;;;;;;5.28;3.20;;;;;;;;;;4920404;29;20475;-89
2022/10/29 18:06:04;;;;;;;9.75;4.50;;;;;;;;;;4920605;29;20044;-85
2022/10/29 18:08:30;;;;;;;8.57;4.13;;;;;;;;;;4920317;29;20034;-74
2022/10/29 18:11:17;;;;;;;9.50;4.60;;;;;;;;;;4920094;29;20024;-87
2022/10/29 18:13:44;;;;;;;6.35;3.97;;;;;;;;;;4920139;29;20032;-82
2022/10/29 18:16:17;;;;;;;7.65;5.38;;;;;;;;;;4920040;29;20111;-83
2022/10/29 18:18:43;;;;;;;7.00;4.53;;;;;;;;;;4920281;29;20024;-83
2022/10/29 18:21:12;;;;;;;7.75;4.60;;;;;;;;;;4920029;29;20024;-83
2022/10/29 18:23:37;;;;;;;7.68;4.60;;;;;;;;;;4920071;29;20032;-87
2022/10/29 18:26:05;;;;;;;9.77;4.65;;;;;;;;;;4919146;29;20476;-81
2022/10/29 18:28:31;;;;;;;7.85;6.05;;;;;;;;;;4918013;29;20032;-82
2022/10/29 18:30:58;;;;;;;8.00;5.65;;;;;;;;;;4919245;29;20090;-82
2022/10/29 18:33:24;;;;;;;8.15;4.70;;;;;;;;;;4919412;29;20032;-81
2022/10/29 18:35:53;;;;;;;9.35;5.40;;;;;;;;;;4919614;29;20491;-81
2022/10/29 18:38:18;;;;;;;8.63;5.30;;;;;;;;;;4919692;29;20035;-84
2022/10/29 18:40:51;;;;;;;13.18;9.90;;;;;;;;;;4919626;29;20024;-82
2022/10/29 18:43:16;;;;;;;13.70;7.53;;;;;;;;;;4902530;29;20053;-82
2022/10/29 18:45:42;;;;;;;10.10;5.78;;;;;;;;;;4919480;29;20377;-83
2022/10/29 18:48:07;;;;;;;9.88;6.00;;;;;;;;;;4919203;29;20421;-86
2022/10/29 18:50:33;;;;;;;9.95;6.07;;;;;;;;;;4919361;29;20025;-83
2022/10/29 18:52:58;;;;;;;6.45;4.80;;;;;;;;;;4919416;29;20024;-82
2022/10/29 18:55:23;;;;;;;9.18;5.50;;;;;;;;;;4918823;29;20024;-83
2022/10/29 18:57:49;;;;;;;9.18;5.20;;;;;;;;;;4919292;29;20086;-83
2022/10/29 19:00:15;;;;;;;6.90;4.28;;;;;;;;;;4918993;29;20432;-86
2022/10/29 19:02:40;;;;;;;5.75;4.68;;;;;;;;;;4901975;29;20136;-82
2022/10/29 19:05:06;;;;;;;8.32;5.25;;;;;;;;;;4901975;29;20392;-84
2022/10/29 19:07:32;;;;;;;9.70;5.57;;;;;;;;;;4918704;29;20032;-83
2022/10/29 19:09:57;;;;;;;11.85;8.00;;;;;;;;;;4901985;29;20060;-85
2022/10/29 19:12:22;;;;;;;21.40;14.35;;;;;;;;;;4919081;29;20072;-84
2022/10/29 19:14:48;;;;;;;11.15;7.35;;;;;;;;;;4918838;29;20060;-85
2022/10/29 19:17:13;;;;;;;9.30;5.30;;;;;;;;;;4901796;29;20464;-84
2022/10/29 19:19:39;;;;;;;9.05;3.88;;;;;;;;;;4918907;29;20028;-84
2022/10/29 19:22:04;;;;;;;5.00;3.58;;;;;;;;;;4918943;29;20020;-84
2022/10/29 19:24:30;;;;;;;9.27;4.55;;;;;;;;;;4918547;29;20028;-83
2022/10/29 19:26:55;;;;;;;7.30;4.40;;;;;;;;;;4918825;29;20488;-83
2022/10/29 19:29:21;;;;;;;5.75;4.38;;;;;;;;;;4918800;29;20112;-84
2022/10/29 19:31:46;;;;;;;6.10;4.40;;;;;;;;;;4918372;29;20078;-82
2022/10/29 19:34:12;;;;;;;7.45;3.97;;;;;;;;;;4918256;29;20024;-81
2022/10/29 19:36:38;;;;;;;6.95;4.43;;;;;;;;;;4918426;29;20028;-81
2022/10/29 19:39:05;;;;;;;5.82;4.13;;;;;;;;;;4901266;29;20035;-83
2022/10/29 19:41:31;;;;;;;7.10;4.15;;;;;;;;;;4918483;29;20039;-82
2022/10/29 19:44:02;;;;;;;8.30;4.13;;;;;;;;;;4917945;29;20400;-83
2022/10/29 19:46:28;;;;;;;7.78;4.05;;;;;;;;;;4918297;29;20435;-82
2022/10/29 19:48:56;;;;;;;8.45;4.68;;;;;;;;;;4901199;29;20027;-83
2022/10/29 19:51:22;;;;;;;5.50;4.15;;;;;;;;;;4918539;29;20028;-81
2022/10/29 19:53:50;;;;;;;7.18;4.13;;;;;;;;;;4918357;29;20389;-83
2022/10/29 19:56:16;;;;;;;8.18;4.97;;;;;;;;;;4918235;29;20039;-84
2022/10/29 19:58:42;;;;;;;6.57;4.82;;;;;;;;;;4918097;29;20472;-82
2022/10/29 20:01:11;;;;;;;8.95;4.57;;;;;;;;;;4917804;29;20032;-85
2022/10/29 20:03:36;;;;;;;7.55;3.90;;;;;;;;;;4918256;29;20043;-82
2022/10/29 20:06:02;;;;;;;7.00;4.13;;;;;;;;;;4917938;29;20040;-83
2022/10/29 20:08:28;;;;;;;9.00;4.00;;;;;;;;;;4917935;29;20028;-83
2022/10/29 20:10:55;;;;;;;9.60;3.92;;;;;;;;;;4918002;29;20039;-83
2022/10/29 20:13:20;;;;;;;7.10;4.30;;;;;;;;;;4917789;29;20032;-82
2022/10/29 20:15:46;;;;;;;8.60;3.88;;;;;;;;;;4917718;29;20032;-83
2022/10/29 20:18:11;;;;;;;7.10;3.08;;;;;;;;;;4917693;29;20033;-84
2022/10/29 20:20:36;;;;;;;6.80;3.40;;;;;;;;;;4917963;29;20053;-82
2022/10/29 20:23:02;;;;;;;5.90;3.50;;;;;;;;;;4917606;29;20060;-84
2022/10/29 20:25:27;;;;;;;5.55;3.33;;;;;;;;;;4917654;29;20464;-83
2022/10/29 20:27:53;;;;;;;5.72;3.75;;;;;;;;;;4900521;29;20115;-82
2022/10/29 20:30:18;;;;;;;6.10;3.47;;;;;;;;;;4917589;29;20028;-83
2022/10/29 20:32:44;;;;;;;5.30;4.45;;;;;;;;;;4917506;29;20036;-83
2022/10/29 20:35:09;;;;;;;5.47;3.72;;;;;;;;;;4917267;29;20024;-84
2022/10/29 20:37:35;;;;;;;8.35;4.15;;;;;;;;;;4917467;29;20035;-84
2022/10/29 20:40:00;;;;;;;5.13;4.32;;;;;;;;;;4917561;29;20067;-83
2022/10/29 20:42:26;;;;;;;6.88;3.50;;;;;;;;;;4917387;29;20444;-83
2022/10/29 20:44:51;;;;;;;8.10;3.70;;;;;;;;;;4917003;29;20048;-83
2022/10/29 20:47:16;;;;;;;6.20;4.20;;;;;;;;;;4917138;29;20020;-82
2022/10/29 20:49:42;;;;;;;7.15;4.03;;;;;;;;;;4917541;29;20062;-83
2022/10/29 20:52:08;;;;;;;12.45;7.50;;;;;;;;;;4899798;29;20032;-81
2022/10/29 20:54:33;;;;;;;6.78;5.35;;;;;;;;;;4917206;29;20036;-82
2022/10/29 20:56:59;;;;;;;5.82;4.32;;;;;;;;;;4916607;29;20028;-81
2022/10/29 20:59:24;;;;;;;6.35;4.15;;;;;;;;;;4916705;29;20024;-80
2022/10/29 21:01:50;;;;;;;6.50;3.50;;;;;;;;;;4900189;29;20028;-81
2022/10/29 21:04:16;;;;;;;5.68;3.50;;;;;;;;;;4917154;29;20113;-81
2022/10/29 21:06:41;;;;;;;6.15;3.45;;;;;;;;;;4917075;29;20541;-82
2022/10/29 21:09:07;;;;;;;6.78;3.72;;;;;;;;;;4917111;29;20024;-81
2022/10/29 21:11:32;;;;;;;7.55;4.00;;;;;;;;;;4917280;29;20460;-81
2022/10/29 21:13:58;;;;;;;6.63;4.43;;;;;;;;;;4916416;29;20470;-81
2022/10/29 21:16:27;;;;;;;7.72;3.55;;;;;;;;;;4917361;29;20460;-81
2022/10/29 21:18:59;;;;;;;5.68;3.28;;;;;;;;;;4917199;29;20468;-82
2022/10/29 21:21:26;;;;;;;7.15;3.90;;;;;;;;;;4917191;29;20428;-81
2022/10/29 21:23:51;;;;;;;5.85;3.70;;;;;;;;;;4917076;29;20111;-82
2022/10/29 21:26:20;;;;;;;8.40;3.35;;;;;;;;;;4917180;29;20446;-81
2022/10/29 21:28:47;;;;;;;7.80;3.20;;;;;;;;;;4917142;29;20032;-83
2022/10/29 21:31:13;;;;;;;5.63;3.45;;;;;;;;;;4917242;29;20536;-81
2022/10/29 21:33:39;;;;;;;9.32;4.18;;;;;;;;;;4917246;29;20059;-82
2022/10/29 21:36:05;;;;;;;5.82;3.72;;;;;;;;;;4917111;29;20107;-83
2022/10/29 21:38:32;;;;;;;6.40;3.72;;;;;;;;;;4917105;29;20039;-82
